Terminal Aerodrome Forecast
Issued by NWS

Home | Current Version | Previous Version | Text Only | Print | Product List | Glossary On
Versions: 1 2 3 4 5 6 7 8 9 10 11 12 13 14 15 16 17 18 19 20 21 22 23 24 25 26 27 28 29
000
FTUS41 KALY 261136 AAD
TAFPSF
TAF AMD
KPSF 261136Z 2612/2712 00000KT 1/4SM FG VV001
     FM261300 VRB03KT P6SM FEW250
      TEMPO 2613/2614 3SM BR OVC010
     FM270400 20006KT P6SM BKN040 PROB30 2708/2712 4SM -SHRA OVC040=

USA.gov is the U.S. government's official web portal to all federal, state and local government web resources and services.